createdAt,value
2019-01-11T00:02:18.775Z,14.20
2019-01-11T00:04:48.104Z,13.90
2019-01-11T00:07:17.698Z,13.45
2019-01-11T00:09:46.955Z,15.03
2019-01-11T00:12:16.236Z,16.25
2019-01-11T00:14:45.572Z,16.62
2019-01-11T00:17:14.903Z,16.77
2019-01-11T00:19:44.234Z,15.65
2019-01-11T00:22:13.546Z,15.85
2019-01-11T00:24:42.785Z,17.67
2019-01-11T00:27:12.082Z,17.17
2019-01-11T00:29:41.442Z,14.90
2019-01-11T00:32:11.033Z,15.08
2019-01-11T00:34:40.439Z,15.68
2019-01-11T00:37:09.774Z,15.32
2019-01-11T00:39:39.078Z,16.27
2019-01-11T00:42:08.386Z,16.23
2019-01-11T00:44:37.692Z,16.85
2019-01-11T00:47:07.312Z,19.05
2019-01-11T00:49:36.627Z,18.40
2019-01-11T00:52:05.918Z,18.42
2019-01-11T00:54:35.253Z,18.40
2019-01-11T00:57:04.525Z,18.15
2019-01-11T00:59:33.851Z,18.27
2019-01-11T01:02:03.152Z,18.35
2019-01-11T01:04:32.470Z,18.15
2019-01-11T01:07:01.805Z,19.40
2019-01-11T01:09:31.281Z,18.55
2019-01-11T01:12:00.795Z,18.25
2019-01-11T01:14:30.118Z,18.07
2019-01-11T01:16:59.463Z,17.98
2019-01-11T01:19:28.777Z,18.15
2019-01-11T01:21:58.138Z,17.15
2019-01-11T01:24:27.574Z,17.73
2019-01-11T01:26:56.899Z,17.90
2019-01-11T01:29:26.246Z,16.80
2019-01-11T01:31:55.580Z,18.07
2019-01-11T01:34:24.859Z,17.60
2019-01-11T01:36:54.222Z,18.10
2019-01-11T01:39:24.155Z,18.87
2019-01-11T01:41:53.506Z,18.62
2019-01-11T01:44:22.819Z,17.92
2019-01-11T01:46:52.454Z,18.65
2019-01-11T01:49:26.512Z,17.73
2019-01-11T01:51:54.160Z,16.67
2019-01-11T01:54:23.465Z,18.23
2019-01-11T01:56:53.094Z,18.05
2019-01-11T01:59:22.535Z,17.65
2019-01-11T02:01:51.882Z,16.95
2019-01-11T02:04:39.554Z,16.07
2019-01-11T02:07:08.870Z,17.32
2019-01-11T02:09:38.190Z,16.62
2019-01-11T02:12:07.588Z,16.70
2019-01-11T02:14:36.896Z,16.52
2019-01-11T02:17:06.193Z,16.65
2019-01-11T02:19:35.855Z,16.73
2019-01-11T02:22:05.412Z,15.85
2019-01-11T02:24:34.726Z,16.50
2019-01-11T02:27:04.063Z,15.32
2019-01-11T02:29:33.710Z,15.20
2019-01-11T02:32:03.029Z,14.95
2019-01-11T02:34:32.288Z,14.40
2019-01-11T02:37:01.638Z,14.60
2019-01-11T02:39:30.935Z,15.45
2019-01-11T02:42:00.251Z,14.85
2019-01-11T02:44:29.511Z,14.55
2019-01-11T02:46:58.828Z,13.13
2019-01-11T02:49:28.450Z,13.88
2019-01-11T02:52:16.521Z,13.10
2019-01-11T02:54:45.834Z,13.85
2019-01-11T02:57:15.131Z,13.40
2019-01-11T02:59:44.474Z,12.47
2019-01-11T03:02:14.111Z,13.90
2019-01-11T03:04:43.443Z,14.43
2019-01-11T03:07:12.731Z,13.70
2019-01-11T03:09:42.033Z,14.43
2019-01-11T03:12:11.328Z,13.53
2019-01-11T03:14:40.658Z,14.35
2019-01-11T03:17:10.182Z,14.18
2019-01-11T03:19:39.560Z,13.45
2019-01-11T03:22:08.869Z,14.07
2019-01-11T03:24:38.479Z,13.28
2019-01-11T03:27:07.807Z,14.47
2019-01-11T03:29:37.467Z,14.03
2019-01-11T03:32:06.819Z,14.55
2019-01-11T03:34:40.853Z,13.32
2019-01-11T03:37:10.327Z,14.28
2019-01-11T03:39:40.118Z,14.03
2019-01-11T03:42:12.448Z,13.20
2019-01-11T03:44:41.954Z,12.58
2019-01-11T03:47:11.487Z,13.50
2019-01-11T03:49:41.047Z,13.13
2019-01-11T03:52:10.558Z,13.40
2019-01-11T03:54:40.259Z,14.00
2019-01-11T03:57:09.754Z,13.03
2019-01-11T03:59:39.179Z,12.50
2019-01-11T04:02:08.956Z,12.18
2019-01-11T04:04:38.480Z,12.40
2019-01-11T04:07:07.956Z,12.13
2019-01-11T04:09:37.495Z,13.10
2019-01-11T04:12:06.945Z,13.38
2019-01-11T04:14:36.369Z,12.85
2019-01-11T04:17:05.878Z,12.85
2019-01-11T04:19:35.769Z,13.55
2019-01-11T04:22:22.352Z,13.45
2019-01-11T04:25:11.243Z,14.15
2019-01-11T04:27:40.712Z,12.90
2019-01-11T04:30:16.218Z,14.58
2019-01-11T04:32:45.702Z,13.28
2019-01-11T04:35:15.155Z,14.73
2019-01-11T04:37:45.712Z,14.58
2019-01-11T04:40:17.566Z,14.45
2019-01-11T04:42:47.228Z,13.62
2019-01-11T04:45:16.622Z,12.30
2019-01-11T04:47:46.074Z,13.28
2019-01-11T04:50:18.228Z,12.65
2019-01-11T04:52:47.682Z,13.10
2019-01-11T04:55:17.464Z,12.75
2019-01-11T04:57:46.999Z,13.48
2019-01-11T05:00:18.999Z,13.10
2019-01-11T05:02:48.559Z,12.55
2019-01-11T05:05:18.182Z,12.63
2019-01-11T05:07:47.639Z,13.65
2019-01-11T05:10:18.799Z,14.23
2019-01-11T05:12:48.241Z,13.15
2019-01-11T05:15:17.783Z,13.62
2019-01-11T05:17:47.469Z,13.45
2019-01-11T05:20:17.930Z,13.30
2019-01-11T05:22:47.715Z,14.03
2019-01-11T05:25:17.233Z,13.03
2019-01-11T05:27:47.055Z,11.93
2019-01-11T05:30:18.273Z,12.23
2019-01-11T05:32:47.838Z,12.85
2019-01-11T05:35:17.400Z,12.43
2019-01-11T05:37:46.933Z,13.80
2019-01-11T05:40:20.089Z,15.20
2019-01-11T05:42:49.535Z,13.80
2019-01-11T05:45:19.502Z,12.78
2019-01-11T05:47:49.001Z,13.72
2019-01-11T05:50:24.315Z,13.03
2019-01-11T05:52:51.879Z,13.32
2019-01-11T05:55:44.449Z,13.15
2019-01-11T05:58:36.448Z,13.55
2019-01-11T06:01:06.081Z,13.60
2019-01-11T06:03:35.570Z,13.58
2019-01-11T06:06:06.608Z,14.73
2019-01-11T06:08:36.560Z,14.90
2019-01-11T06:11:06.267Z,14.30
2019-01-11T06:13:35.823Z,16.27
2019-01-11T06:16:05.975Z,13.13
2019-01-11T06:18:35.569Z,13.25
2019-01-11T06:21:05.184Z,12.30
2019-01-11T06:23:34.664Z,12.00
2019-01-11T06:26:04.594Z,11.80
2019-01-11T06:28:34.229Z,12.10
2019-01-11T06:31:03.856Z,12.13
2019-01-11T06:33:33.349Z,11.48
2019-01-11T06:36:02.862Z,11.15
2019-01-11T06:38:32.464Z,10.95
2019-01-11T06:41:01.953Z,10.75
2019-01-11T06:43:31.488Z,10.72
2019-01-11T06:46:01.102Z,11.48
2019-01-11T06:48:40.670Z,10.98
2019-01-11T06:51:10.444Z,12.03
2019-01-11T06:53:39.940Z,16.73
2019-01-11T06:56:09.419Z,13.58
2019-01-11T06:58:38.940Z,12.10
2019-01-11T07:01:08.435Z,12.70
2019-01-11T07:03:37.934Z,11.93
2019-01-11T07:06:07.471Z,12.15
2019-01-11T07:08:36.964Z,11.12
2019-01-11T07:11:06.434Z,10.85
2019-01-11T07:13:36.360Z,11.05
2019-01-11T07:16:07.025Z,11.88
2019-01-11T07:18:36.635Z,11.35
2019-01-11T07:21:06.186Z,10.75
2019-01-11T07:23:35.659Z,10.82
2019-01-11T07:26:05.476Z,11.22
2019-01-11T07:28:34.914Z,11.20
2019-01-11T07:31:13.659Z,11.33
2019-01-11T07:33:43.225Z,12.10
2019-01-11T07:36:30.160Z,11.93
2019-01-11T07:38:59.655Z,15.50
2019-01-11T07:41:29.219Z,12.07
2019-01-11T07:43:58.912Z,11.12
2019-01-11T07:46:28.343Z,11.45
2019-01-11T07:48:57.860Z,10.88
2019-01-11T07:51:27.403Z,11.85
2019-01-11T07:53:57.000Z,11.38
2019-01-11T07:56:26.502Z,12.90
2019-01-11T07:58:55.985Z,13.50
2019-01-11T08:01:26.739Z,13.48
2019-01-11T08:03:56.219Z,12.35
2019-01-11T08:06:25.892Z,12.18
2019-01-11T08:08:55.399Z,13.05
2019-01-11T08:11:25.171Z,11.38
2019-01-11T08:13:54.623Z,11.50
2019-01-11T08:16:24.108Z,10.50
2019-01-11T08:18:53.751Z,11.43
2019-01-11T08:21:23.329Z,11.15
2019-01-11T08:23:52.799Z,10.80
2019-01-11T08:26:22.612Z,11.00
2019-01-11T08:28:52.151Z,11.05
2019-01-11T08:31:21.631Z,11.03
2019-01-11T08:33:51.232Z,11.15
2019-01-11T08:36:20.719Z,10.90
2019-01-11T08:38:50.261Z,11.70
2019-01-11T08:41:19.940Z,12.10
2019-01-11T08:43:49.514Z,10.95
2019-01-11T08:46:19.207Z,12.43
2019-01-11T08:48:49.241Z,11.65
2019-01-11T08:51:18.769Z,12.47
2019-01-11T08:53:48.227Z,12.33
2019-01-11T09:01:36.320Z,10.88
2019-01-11T09:04:06.311Z,12.20
2019-01-11T09:06:35.837Z,11.70
2019-01-11T09:09:08.196Z,12.15
2019-01-11T09:11:37.915Z,11.57
2019-01-11T09:14:09.115Z,12.18
2019-01-11T09:16:38.828Z,12.80
2019-01-11T09:19:09.467Z,11.43
2019-01-11T09:21:41.691Z,11.30
2019-01-11T09:24:10.506Z,12.68
2019-01-11T09:26:40.218Z,13.48
2019-01-11T09:29:09.836Z,12.65
2019-01-11T09:31:39.469Z,14.38
2019-01-11T09:34:09.137Z,13.48
2019-01-11T09:36:39.037Z,14.85
2019-01-11T09:39:09.669Z,13.88
2019-01-11T09:41:39.526Z,14.63
2019-01-11T09:44:09.208Z,15.65
2019-01-11T09:46:39.064Z,15.75
2019-01-11T09:49:08.946Z,15.83
2019-01-11T09:51:38.773Z,15.83
2019-01-11T09:54:08.598Z,15.70
2019-01-11T09:56:38.695Z,17.15
2019-01-11T09:59:08.379Z,14.73
2019-01-11T10:01:38.034Z,15.28
2019-01-11T10:04:09.417Z,14.98
2019-01-11T10:06:44.877Z,16.20
2019-01-11T10:09:14.542Z,18.25
2019-01-11T10:11:44.350Z,16.30
2019-01-11T10:14:14.000Z,15.18
2019-01-11T10:16:43.943Z,15.72
2019-01-11T10:19:13.768Z,15.45
2019-01-11T10:21:43.460Z,15.05
2019-01-11T10:24:13.202Z,15.78
2019-01-11T10:26:42.924Z,16.23
2019-01-11T10:29:13.016Z,15.00
2019-01-11T10:31:42.708Z,15.53
2019-01-11T10:34:12.416Z,16.55
2019-01-11T10:36:42.879Z,16.15
2019-01-11T10:39:13.364Z,14.28
2019-01-11T10:41:43.512Z,14.63
2019-01-11T10:44:13.705Z,14.45
2019-01-11T10:46:48.998Z,14.30
2019-01-11T10:49:16.060Z,14.35
2019-01-11T10:51:45.711Z,14.53
2019-01-11T10:54:25.633Z,15.53
2019-01-11T10:56:55.241Z,15.23
2019-01-11T10:59:24.894Z,16.90
2019-01-11T11:01:54.467Z,16.00
2019-01-11T11:04:24.012Z,16.62
2019-01-11T11:06:53.786Z,15.63
2019-01-11T11:09:23.472Z,15.95
2019-01-11T11:11:53.645Z,19.00
2019-01-11T11:14:23.341Z,18.02
2019-01-11T11:16:52.952Z,17.77
2019-01-11T11:19:22.677Z,16.87
2019-01-11T11:21:52.304Z,18.05
2019-01-11T11:24:22.540Z,20.57
2019-01-11T11:26:53.251Z,20.12
2019-01-11T11:29:22.905Z,21.60
2019-01-11T11:31:52.771Z,17.95
2019-01-11T11:34:27.637Z,15.90
2019-01-11T11:36:58.520Z,17.02
2019-01-11T11:39:28.155Z,16.75
2019-01-11T11:41:57.961Z,17.40
2019-01-11T11:44:27.777Z,16.80
2019-01-11T11:46:58.058Z,16.75
2019-01-11T11:49:27.689Z,17.82
2019-01-11T11:51:57.445Z,16.37
2019-01-11T11:54:27.159Z,16.37
2019-01-11T11:56:56.953Z,15.40
2019-01-11T11:59:26.749Z,15.45
2019-01-11T12:01:56.457Z,15.05
2019-01-11T12:04:26.146Z,13.32
2019-01-11T12:06:55.782Z,13.05
2019-01-11T12:09:26.480Z,13.00
2019-01-11T12:11:56.151Z,12.07
2019-01-11T12:14:25.738Z,12.65
2019-01-11T12:16:55.411Z,12.95
2019-01-11T12:19:25.041Z,11.83
2019-01-11T12:21:54.981Z,11.28
2019-01-11T12:24:24.652Z,11.93
2019-01-11T12:26:54.305Z,11.38
2019-01-11T12:29:23.919Z,12.00
2019-01-11T12:31:53.614Z,11.95
2019-01-11T12:34:23.518Z,11.33
2019-01-11T12:36:53.225Z,11.30
2019-01-11T12:39:23.315Z,11.20
2019-01-11T12:41:53.106Z,9.63
2019-01-11T12:44:22.809Z,11.03
2019-01-11T12:46:52.761Z,11.48
2019-01-11T12:49:22.436Z,10.35
2019-01-11T12:51:54.062Z,10.38
2019-01-11T12:54:23.553Z,11.28
2019-01-11T12:56:53.171Z,9.43
2019-01-11T12:59:22.873Z,9.88
2019-01-11T13:01:52.437Z,10.38
2019-01-11T13:04:22.448Z,10.63
2019-01-11T13:06:52.276Z,10.50
2019-01-11T13:09:39.957Z,9.98
2019-01-11T13:12:09.525Z,10.68
2019-01-11T13:14:39.009Z,11.22
2019-01-11T13:17:08.641Z,11.22
2019-01-11T13:19:38.360Z,10.95
2019-01-11T13:22:08.059Z,10.58
2019-01-11T13:24:37.634Z,11.48
2019-01-11T13:27:07.211Z,10.45
2019-01-11T13:29:36.933Z,11.40
2019-01-11T13:32:06.512Z,11.70
2019-01-11T13:34:36.403Z,11.90
2019-01-11T13:37:06.510Z,12.00
2019-01-11T13:39:36.126Z,12.43
2019-01-11T13:42:23.696Z,12.40
2019-01-11T13:44:53.167Z,12.47
2019-01-11T13:47:22.832Z,12.78
2019-01-11T13:49:52.314Z,11.97
2019-01-11T13:52:21.919Z,11.60
2019-01-11T13:54:51.552Z,13.68
2019-01-11T13:57:21.096Z,12.53
2019-01-11T13:59:50.644Z,13.43
2019-01-11T14:02:20.164Z,14.20
2019-01-11T14:04:49.777Z,13.65
2019-01-11T14:07:19.267Z,14.85
2019-01-11T14:09:49.841Z,14.43
2019-01-11T14:12:19.342Z,14.78
2019-01-11T14:14:49.019Z,14.47
2019-01-11T14:17:18.551Z,14.23
2019-01-11T14:19:48.065Z,13.40
2019-01-11T14:22:17.788Z,13.25
2019-01-11T14:24:47.280Z,13.60
2019-01-11T14:27:16.812Z,12.75
2019-01-11T14:29:46.457Z,13.62
2019-01-11T14:32:16.383Z,12.18
2019-01-11T14:34:45.919Z,12.50
2019-01-11T14:37:15.520Z,13.00
2019-01-11T14:39:45.135Z,13.00
2019-01-11T14:42:14.587Z,12.85
2019-01-11T14:44:44.136Z,10.88
2019-01-11T14:47:14.041Z,11.35
2019-01-11T14:49:43.627Z,11.35
2019-01-11T14:52:13.123Z,8.58
2019-01-11T14:54:42.768Z,9.65
2019-01-11T14:57:12.259Z,10.30
2019-01-11T14:59:42.201Z,9.98
2019-01-11T15:02:11.695Z,9.60
2019-01-11T15:04:41.257Z,9.30
2019-01-11T15:07:10.757Z,7.83
2019-01-11T15:09:40.352Z,8.28
2019-01-11T15:12:10.027Z,7.03
2019-01-11T15:14:39.671Z,7.72
2019-01-11T15:17:09.382Z,8.88
2019-01-11T15:19:38.952Z,10.30
2019-01-11T15:23:13.642Z,11.30
2019-01-11T15:25:43.467Z,9.65
2019-01-11T15:28:13.030Z,7.90
2019-01-11T15:30:42.927Z,8.83
2019-01-11T15:33:12.459Z,15.40
2019-01-11T15:35:42.467Z,10.80
2019-01-11T15:38:12.151Z,9.93
2019-01-11T15:40:41.723Z,12.03
2019-01-11T15:43:11.266Z,11.70
2019-01-11T15:45:41.112Z,11.60
2019-01-11T15:48:17.576Z,13.53
2019-01-11T15:51:04.943Z,16.30
2019-01-11T15:53:38.492Z,14.23
2019-01-11T15:56:12.827Z,14.13
2019-01-11T15:58:42.417Z,15.03
2019-01-11T16:01:12.030Z,15.43
2019-01-11T16:03:41.680Z,13.62
2019-01-11T16:06:26.140Z,16.60
2019-01-11T16:09:37.186Z,16.48
2019-01-11T16:12:09.932Z,14.45
2019-01-11T16:15:19.360Z,16.55
2019-01-11T16:17:48.864Z,16.60
2019-01-11T16:20:19.564Z,15.55
2019-01-11T16:22:49.092Z,15.98
2019-01-11T16:25:18.988Z,14.80
2019-01-11T16:27:48.691Z,16.20
2019-01-11T16:30:18.427Z,16.45
2019-01-11T16:32:47.996Z,14.70
2019-01-11T16:35:17.882Z,15.13
2019-01-11T16:37:47.526Z,14.93
2019-01-11T16:40:17.091Z,15.30
2019-01-11T16:42:46.684Z,13.58
2019-01-11T16:45:16.523Z,14.38
2019-01-11T16:48:03.762Z,15.75
2019-01-11T16:50:33.632Z,15.40
2019-01-11T16:53:03.291Z,16.12
2019-01-11T16:55:32.902Z,15.75
2019-01-11T16:58:40.568Z,16.48
2019-01-11T17:01:45.912Z,17.07
2019-01-11T17:04:15.524Z,17.15
2019-01-11T17:06:45.533Z,16.60
2019-01-11T17:09:15.164Z,16.23
2019-01-11T17:11:44.704Z,15.40
2019-01-11T17:14:14.464Z,16.87
2019-01-11T17:16:43.971Z,16.02
2019-01-11T17:19:32.552Z,16.27
2019-01-11T17:22:02.258Z,17.98
2019-01-11T17:25:30.218Z,14.58
2019-01-11T17:27:59.762Z,18.05
2019-01-11T17:30:29.237Z,17.95
2019-01-11T17:32:58.987Z,17.00
2019-01-11T17:35:28.631Z,17.05
2019-01-11T17:37:58.217Z,16.67
2019-01-11T17:40:27.945Z,16.80
2019-01-11T17:42:57.613Z,17.95
2019-01-11T18:07:05.518Z,18.42
2019-01-11T18:09:35.077Z,18.52
2019-01-11T18:12:04.716Z,18.52
2019-01-11T18:14:34.236Z,19.32
2019-01-11T18:17:04.114Z,17.70
2019-01-11T18:19:33.718Z,17.15
2019-01-11T18:22:03.525Z,17.60
2019-01-11T18:28:14.359Z,15.72
2019-01-11T18:30:45.229Z,16.45
2019-01-11T18:33:14.806Z,16.50
2019-01-11T18:35:44.318Z,17.85
2019-01-11T18:38:15.967Z,15.43
2019-01-11T18:40:47.587Z,15.13
2019-01-11T18:43:17.261Z,15.38
2019-01-11T18:45:46.840Z,14.63
2019-01-11T18:48:34.465Z,14.80
2019-01-11T18:51:08.276Z,14.60
2019-01-11T18:53:37.965Z,14.55
2019-01-11T18:56:07.741Z,15.23
2019-01-11T18:58:37.387Z,15.32
2019-01-11T19:01:43.026Z,14.68
2019-01-11T19:04:12.936Z,15.20
2019-01-11T19:06:42.629Z,15.58
2019-01-11T19:09:12.153Z,14.25
2019-01-11T19:11:59.935Z,14.33
2019-01-11T19:14:29.918Z,16.77
2019-01-11T19:16:59.567Z,17.82
2019-01-11T19:19:29.274Z,14.47
2019-01-11T19:21:58.872Z,16.70
2019-01-11T19:24:28.597Z,13.38
2019-01-11T19:26:58.136Z,14.47
2019-01-11T19:29:33.783Z,15.23
2019-01-11T19:32:05.705Z,15.78
2019-01-11T19:34:35.347Z,15.18
2019-01-11T19:37:05.121Z,15.10
2019-01-11T19:39:34.787Z,14.38
2019-01-11T19:42:04.423Z,14.87
2019-01-11T19:44:35.212Z,14.40
2019-01-11T19:47:04.859Z,15.05
2019-01-11T19:49:34.556Z,15.40
2019-01-11T19:52:04.248Z,15.78
2019-01-11T19:54:34.026Z,15.08
2019-01-11T19:57:03.614Z,13.40
2019-01-11T19:59:33.415Z,12.35
2019-01-11T20:02:03.048Z,12.93
2019-01-11T20:04:32.699Z,13.50
2019-01-11T20:07:02.425Z,13.83
2019-01-11T20:09:32.512Z,14.38
2019-01-11T20:12:02.444Z,14.25
2019-01-11T20:14:31.978Z,14.68
2019-01-11T20:17:01.603Z,14.50
2019-01-11T20:19:31.216Z,14.45
2019-01-11T20:22:01.011Z,14.98
2019-01-11T20:24:31.070Z,13.15
2019-01-11T20:27:00.710Z,14.40
2019-01-11T20:29:30.316Z,15.88
2019-01-11T20:32:00.086Z,13.70
2019-01-11T20:34:29.758Z,14.13
2019-01-11T20:37:16.060Z,14.00
2019-01-11T20:39:45.610Z,13.72
2019-01-11T20:42:15.293Z,14.60
2019-01-11T20:44:44.916Z,12.75
2019-01-11T20:47:14.553Z,14.75
2019-01-11T20:49:44.150Z,13.35
2019-01-11T20:52:13.748Z,12.47
2019-01-11T20:54:43.275Z,14.87
2019-01-11T20:57:12.984Z,13.58
2019-01-11T20:59:44.597Z,11.03
2019-01-11T21:02:14.348Z,10.20
2019-01-11T21:04:44.082Z,11.53
2019-01-11T21:07:13.701Z,11.38
2019-01-11T21:09:43.419Z,11.12
2019-01-11T21:12:13.014Z,10.43
2019-01-11T21:14:42.604Z,11.35
2019-01-11T21:17:12.165Z,11.20
2019-01-11T21:19:41.821Z,11.48
2019-01-11T21:22:11.456Z,10.50
2019-01-11T21:24:41.096Z,9.53
2019-01-11T21:27:10.802Z,9.60
2019-01-11T21:29:40.402Z,10.40
2019-01-11T21:32:10.061Z,9.70
2019-01-11T21:34:39.862Z,9.78
2019-01-11T21:37:09.585Z,9.53
2019-01-11T21:39:39.350Z,9.53
2019-01-11T21:42:08.973Z,10.72
2019-01-11T21:44:38.640Z,9.40
2019-01-11T21:47:08.206Z,10.03
2019-01-11T21:49:38.157Z,9.38
2019-01-11T21:52:07.725Z,10.20
2019-01-11T21:54:55.035Z,10.13
2019-01-11T21:57:25.150Z,10.05
2019-01-11T21:59:54.780Z,10.18
2019-01-11T22:02:24.657Z,10.28
2019-01-11T22:04:54.255Z,10.35
2019-01-11T22:07:23.872Z,10.65
2019-01-11T22:09:53.464Z,10.08
2019-01-11T22:12:23.007Z,8.90
2019-01-11T22:14:52.775Z,9.75
2019-01-11T22:17:22.334Z,9.75
2019-01-11T22:19:52.028Z,9.33
2019-01-11T22:22:21.684Z,9.60
2019-01-11T22:24:51.266Z,9.85
2019-01-11T22:27:20.854Z,8.60
2019-01-11T22:29:50.381Z,10.60
2019-01-11T22:32:19.882Z,9.63
2019-01-11T22:34:49.496Z,9.10
2019-01-11T22:37:19.022Z,8.55
2019-01-11T22:39:48.686Z,8.58
2019-01-11T22:42:18.252Z,9.23
2019-01-11T22:44:48.215Z,9.10
2019-01-11T22:47:17.753Z,10.45
2019-01-11T22:49:47.280Z,10.20
2019-01-11T22:52:16.865Z,10.60
2019-01-11T22:54:46.447Z,10.30
2019-01-11T22:57:16.382Z,10.40
2019-01-11T22:59:45.901Z,10.85
2019-01-11T23:02:35.365Z,10.65
2019-01-11T23:05:07.134Z,10.78
2019-01-11T23:07:49.440Z,10.38
2019-01-11T23:10:32.554Z,10.53
2019-01-11T23:13:05.629Z,10.95
2019-01-11T23:15:40.716Z,10.80
2019-01-11T23:18:15.577Z,10.93
2019-01-11T23:20:45.633Z,11.20
2019-01-11T23:23:15.197Z,10.20
2019-01-11T23:25:44.703Z,10.85
2019-01-11T23:28:14.323Z,9.25
2019-01-11T23:30:43.874Z,11.73
2019-01-11T23:33:13.713Z,10.43
2019-01-11T23:35:43.282Z,10.45
2019-01-11T23:38:12.825Z,9.75
2019-01-11T23:40:42.428Z,9.95
2019-01-11T23:43:11.967Z,9.60
2019-01-11T23:45:41.898Z,9.63
2019-01-11T23:48:11.869Z,8.90
2019-01-11T23:50:41.384Z,8.90
2019-01-11T23:53:10.918Z,9.28
2019-01-11T23:55:40.420Z,8.63
2019-01-11T23:58:09.930Z,8.43
